createdAt,value
2018-12-18T00:01:17.438Z,9.73
2018-12-18T00:03:50.263Z,6.62
2018-12-18T00:06:22.573Z,7.08
2018-12-18T00:08:58.979Z,7.35
2018-12-18T00:11:28.274Z,6.65
2018-12-18T00:13:57.649Z,6.55
2018-12-18T00:16:27.859Z,7.28
2018-12-18T00:18:58.636Z,7.58
2018-12-18T00:24:39.843Z,11.85
2018-12-18T00:27:09.825Z,10.40
2018-12-18T00:29:39.485Z,11.20
2018-12-18T00:35:07.612Z,9.28
2018-12-18T00:37:37.670Z,8.20
2018-12-18T00:40:08.198Z,8.70
2018-12-18T00:42:51.368Z,11.30
2018-12-18T00:45:22.079Z,6.97
2018-12-18T00:47:54.246Z,8.88
2018-12-18T00:50:23.543Z,9.80
2018-12-18T00:52:53.907Z,8.25
2018-12-18T00:55:24.398Z,6.25
2018-12-18T00:57:54.623Z,8.43
2018-12-18T01:00:24.823Z,12.37
2018-12-18T01:02:55.820Z,10.32
2018-12-18T01:05:26.178Z,9.30
2018-12-18T01:07:55.876Z,9.35
2018-12-18T01:10:26.288Z,8.53
2018-12-18T01:12:55.789Z,7.75
2018-12-18T01:15:25.801Z,8.98
2018-12-18T01:17:57.694Z,6.47
2018-12-18T01:20:28.213Z,8.85
2018-12-18T01:22:57.791Z,6.60
2018-12-18T01:25:27.220Z,8.75
2018-12-18T01:27:57.299Z,14.68
2018-12-18T01:30:28.422Z,9.70
2018-12-18T01:32:57.684Z,7.10
2018-12-18T01:35:26.911Z,8.58
2018-12-18T01:37:56.430Z,9.65
2018-12-18T01:40:29.914Z,11.33
2018-12-18T01:42:59.248Z,8.48
2018-12-18T01:45:31.077Z,12.73
2018-12-18T01:48:00.782Z,8.58
2018-12-18T01:50:30.127Z,9.05
2018-12-18T01:52:59.380Z,8.18
2018-12-18T01:55:29.589Z,6.87
2018-12-18T01:58:09.264Z,8.08
2018-12-18T02:00:43.128Z,8.70
2018-12-18T02:03:16.074Z,9.83
2018-12-18T02:06:02.007Z,11.43
2018-12-18T02:08:44.222Z,9.23
2018-12-18T02:11:17.406Z,6.87
2018-12-18T02:16:45.503Z,8.78
2018-12-18T02:22:16.844Z,7.42
2018-12-18T02:24:59.896Z,7.45
2018-12-18T02:27:42.967Z,11.45
2018-12-18T02:30:15.547Z,7.65
2018-12-18T02:32:50.812Z,8.98
2018-12-18T02:35:23.707Z,7.33
2018-12-18T02:37:58.643Z,12.05
2018-12-18T02:40:42.289Z,9.60
2018-12-18T02:46:09.407Z,10.78
2018-12-18T02:54:54.260Z,9.33
2018-12-18T02:57:39.670Z,9.73
2018-12-18T03:00:16.863Z,8.03
2018-12-18T03:03:00.348Z,9.90
2018-12-18T03:05:35.220Z,8.73
2018-12-18T03:08:18.382Z,7.17
2018-12-18T03:13:55.196Z,9.40
2018-12-18T03:16:40.250Z,6.40
2018-12-18T03:19:14.877Z,8.15
2018-12-18T03:24:32.295Z,7.80
2018-12-18T03:27:01.848Z,7.75
2018-12-18T03:29:37.075Z,7.95
2018-12-18T03:32:17.344Z,9.00
2018-12-18T03:38:00.138Z,13.13
2018-12-18T03:40:44.836Z,11.40
2018-12-18T03:46:26.768Z,8.20
2018-12-18T03:51:53.679Z,13.08
2018-12-18T03:54:28.780Z,8.00
2018-12-18T03:57:02.302Z,8.75
2018-12-18T04:02:31.790Z,8.10
2018-12-18T04:05:02.957Z,7.42
2018-12-18T04:07:33.355Z,6.25
2018-12-18T04:15:54.638Z,7.95
2018-12-18T04:18:30.200Z,11.30
2018-12-18T04:24:03.179Z,8.20
2018-12-18T04:26:42.067Z,9.85
2018-12-18T04:29:17.574Z,7.53
2018-12-18T04:34:44.718Z,7.03
2018-12-18T04:37:21.721Z,7.95
2018-12-18T04:40:06.799Z,9.18
2018-12-18T04:45:38.409Z,7.30
2018-12-18T04:48:11.771Z,7.28
2018-12-18T04:50:47.912Z,7.15
2018-12-18T04:53:21.246Z,9.43
2018-12-18T04:55:53.787Z,9.55
2018-12-18T04:58:30.929Z,8.95
2018-12-18T05:01:08.087Z,7.53
2018-12-18T05:03:50.414Z,7.20
2018-12-18T05:06:20.144Z,7.72
2018-12-18T05:08:55.077Z,8.50
2018-12-18T05:14:31.313Z,7.83
2018-12-18T05:17:06.401Z,7.95
2018-12-18T05:19:40.328Z,6.25
2018-12-18T05:22:16.375Z,6.70
2018-12-18T05:24:52.436Z,7.47
2018-12-18T05:27:25.059Z,11.28
2018-12-18T05:32:53.432Z,12.90
2018-12-18T05:35:28.140Z,14.80
2018-12-18T05:38:01.278Z,49.65
2018-12-18T05:40:41.028Z,19.10
2018-12-18T05:43:15.455Z,17.12
2018-12-18T05:45:50.065Z,35.33
2018-12-18T05:48:23.765Z,47.88
2018-12-18T05:51:02.718Z,32.67
2018-12-18T05:53:37.252Z,30.62
2018-12-18T05:56:13.481Z,24.12
2018-12-18T05:58:46.403Z,23.07
2018-12-18T06:01:22.764Z,25.30
2018-12-18T06:03:57.043Z,28.62
2018-12-18T06:06:31.056Z,20.70
2018-12-18T06:09:05.670Z,18.12
2018-12-18T06:11:44.088Z,18.40
2018-12-18T06:14:21.343Z,17.12
2018-12-18T06:16:58.652Z,19.45
2018-12-18T06:19:38.682Z,15.65
2018-12-18T06:22:15.751Z,14.50
2018-12-18T06:24:55.736Z,14.25
2018-12-18T06:27:38.075Z,12.65
2018-12-18T06:30:14.500Z,12.88
2018-12-18T06:32:52.096Z,14.93
2018-12-18T06:35:33.679Z,15.83
2018-12-18T06:38:16.712Z,16.95
2018-12-18T06:40:59.448Z,11.25
2018-12-18T06:43:40.711Z,15.43
2018-12-18T06:46:17.929Z,13.38
2018-12-18T06:48:57.918Z,11.15
2018-12-18T06:51:33.802Z,15.85
2018-12-18T06:54:12.360Z,12.40
2018-12-18T06:56:48.520Z,29.95
2018-12-18T06:59:41.754Z,24.02
2018-12-18T07:02:23.711Z,35.52
2018-12-18T07:04:59.891Z,26.82
2018-12-18T07:07:36.290Z,26.15
2018-12-18T07:10:15.901Z,25.17
2018-12-18T07:12:52.207Z,21.55
2018-12-18T07:15:29.128Z,14.98
2018-12-18T07:18:04.469Z,9.68
2018-12-18T07:20:43.910Z,14.63
2018-12-18T07:23:19.204Z,17.95
2018-12-18T07:25:55.156Z,21.25
2018-12-18T07:28:29.833Z,19.87
2018-12-18T07:31:11.551Z,21.45
2018-12-18T07:33:47.509Z,19.45
2018-12-18T07:36:24.559Z,20.70
2018-12-18T07:38:59.478Z,23.05
2018-12-18T07:41:35.979Z,18.57
2018-12-18T07:44:13.517Z,24.45
2018-12-18T07:46:51.936Z,23.20
2018-12-18T07:49:27.419Z,18.85
2018-12-18T07:52:03.304Z,23.10
2018-12-18T07:54:37.818Z,21.90
2018-12-18T07:57:14.406Z,24.45
2018-12-18T07:59:49.843Z,20.65
2018-12-18T08:02:25.224Z,23.20
2018-12-18T08:05:00.958Z,18.35
2018-12-18T08:07:36.132Z,24.95
2018-12-18T08:10:09.769Z,45.50
2018-12-18T08:12:43.253Z,26.85
2018-12-18T08:15:18.595Z,19.37
2018-12-18T08:17:52.795Z,16.05
2018-12-18T08:20:29.894Z,13.50
2018-12-18T08:23:04.984Z,13.88
2018-12-18T08:25:40.920Z,13.08
2018-12-18T08:28:20.159Z,9.63
2018-12-18T08:30:56.324Z,13.35
2018-12-18T08:33:31.310Z,18.80
2018-12-18T08:36:10.974Z,18.35
2018-12-18T08:38:52.243Z,14.15
2018-12-18T08:41:34.576Z,17.48
2018-12-18T08:44:09.466Z,20.15
2018-12-18T08:49:36.068Z,18.82
2018-12-18T08:52:18.434Z,23.92
2018-12-18T08:54:52.785Z,22.52
2018-12-18T08:57:27.987Z,19.48
2018-12-18T09:00:04.373Z,17.98
2018-12-18T09:02:39.497Z,18.90
2018-12-18T09:05:12.362Z,22.42
2018-12-18T09:07:48.431Z,21.65
2018-12-18T09:10:28.391Z,19.75
2018-12-18T09:13:03.065Z,20.12
2018-12-18T09:15:44.080Z,20.30
2018-12-18T09:18:20.148Z,25.17
2018-12-18T09:20:57.382Z,24.05
2018-12-18T09:23:34.410Z,26.97
2018-12-18T09:26:15.801Z,19.25
2018-12-18T09:28:50.633Z,28.47
2018-12-18T09:31:28.128Z,19.92
2018-12-18T09:34:03.824Z,26.05
2018-12-18T09:36:43.149Z,22.90
2018-12-18T09:39:55.907Z,24.65
2018-12-18T09:42:38.062Z,27.05
2018-12-18T09:45:26.574Z,25.75
2018-12-18T09:48:07.604Z,25.92
2018-12-18T09:50:44.630Z,29.95
2018-12-18T09:53:25.215Z,27.22
2018-12-18T09:56:00.851Z,28.70
2018-12-18T09:58:40.389Z,28.20
2018-12-18T10:01:20.323Z,26.90
2018-12-18T10:03:55.418Z,29.20
2018-12-18T10:06:32.290Z,25.12
2018-12-18T10:09:11.248Z,22.45
2018-12-18T10:11:51.687Z,27.65
2018-12-18T10:14:26.574Z,24.57
2018-12-18T10:17:01.619Z,23.70
2018-12-18T10:19:37.926Z,26.55
2018-12-18T10:22:13.476Z,22.05
2018-12-18T10:24:46.036Z,25.57
2018-12-18T10:27:21.540Z,24.25
2018-12-18T10:29:57.382Z,33.35
2018-12-18T10:32:29.342Z,22.35
2018-12-18T10:35:06.191Z,18.98
2018-12-18T10:37:41.092Z,20.35
2018-12-18T10:40:16.755Z,19.60
2018-12-18T10:42:59.732Z,21.40
2018-12-18T10:45:35.608Z,18.57
2018-12-18T10:48:10.846Z,18.92
2018-12-18T10:50:46.775Z,23.83
2018-12-18T10:53:22.018Z,18.57
2018-12-18T10:55:57.422Z,16.55
2018-12-18T10:58:33.498Z,21.00
2018-12-18T11:01:11.851Z,15.63
2018-12-18T11:06:37.864Z,12.25
2018-12-18T11:09:16.117Z,11.50
2018-12-18T11:11:50.108Z,13.10
2018-12-18T11:14:26.416Z,10.40
2018-12-18T11:17:05.157Z,9.93
2018-12-18T11:19:47.223Z,8.38
2018-12-18T11:22:25.829Z,7.15
2018-12-18T11:24:57.320Z,9.80
2018-12-18T11:27:34.507Z,6.45
2018-12-18T11:30:23.238Z,16.93
2018-12-18T11:33:02.594Z,12.10
2018-12-18T11:35:38.995Z,8.98
2018-12-18T11:38:14.510Z,8.43
2018-12-18T11:40:52.047Z,9.63
2018-12-18T11:43:39.713Z,10.75
2018-12-18T11:46:20.042Z,13.40
2018-12-18T11:49:01.307Z,13.70
2018-12-18T11:51:37.523Z,13.62
2018-12-18T11:54:20.694Z,11.12
2018-12-18T11:56:58.474Z,11.40
2018-12-18T11:59:37.406Z,14.80
2018-12-18T12:02:11.386Z,10.03
2018-12-18T12:05:01.770Z,8.55
2018-12-18T12:07:43.840Z,9.08
2018-12-18T12:10:20.636Z,12.07
2018-12-18T12:12:56.399Z,11.48
2018-12-18T12:18:31.287Z,10.28
2018-12-18T12:21:01.123Z,9.08
2018-12-18T12:23:37.711Z,7.80
2018-12-18T12:26:18.042Z,8.08
2018-12-18T12:28:55.274Z,11.12
2018-12-18T12:31:40.440Z,7.75
2018-12-18T12:34:17.102Z,7.92
2018-12-18T12:37:00.970Z,5.90
2018-12-18T12:39:38.046Z,11.78
2018-12-18T12:42:13.184Z,5.62
2018-12-18T12:44:42.191Z,6.85
2018-12-18T12:47:12.058Z,6.30
2018-12-18T12:49:44.853Z,5.55
2018-12-18T12:52:15.528Z,6.75
2018-12-18T12:54:45.388Z,6.05
2018-12-18T12:57:15.020Z,4.45
2018-12-18T12:59:45.385Z,6.28
2018-12-18T13:05:21.016Z,6.00
2018-12-18T13:07:56.305Z,5.70
2018-12-18T13:10:36.032Z,5.58
2018-12-18T13:13:13.118Z,5.60
2018-12-18T13:15:50.114Z,5.40
2018-12-18T13:18:42.971Z,5.92
2018-12-18T13:21:31.147Z,5.30
2018-12-18T13:26:58.769Z,6.20
2018-12-18T13:35:22.743Z,7.95
2018-12-18T13:37:53.659Z,9.08
2018-12-18T13:40:25.044Z,14.47
2018-12-18T13:42:54.416Z,12.75
2018-12-18T13:45:24.015Z,7.70
2018-12-18T13:47:53.793Z,8.33
2018-12-18T13:50:26.735Z,4.87
2018-12-18T13:52:57.651Z,3.72
2018-12-18T13:55:27.469Z,3.87
2018-12-18T13:57:57.177Z,4.60
2018-12-18T14:00:33.334Z,4.35
2018-12-18T14:03:03.343Z,3.98
2018-12-18T14:05:38.219Z,4.00
2018-12-18T14:11:14.774Z,4.17
2018-12-18T14:13:50.343Z,5.28
2018-12-18T14:16:27.025Z,5.12
2018-12-18T14:19:03.599Z,4.42
2018-12-18T14:21:45.072Z,5.78
2018-12-18T14:24:22.158Z,4.80
2018-12-18T14:27:13.728Z,4.95
2018-12-18T14:33:02.170Z,3.20
2018-12-18T14:35:38.771Z,5.65
2018-12-18T14:38:10.184Z,3.40
2018-12-18T14:40:46.777Z,4.42
2018-12-18T14:43:27.921Z,4.37
2018-12-18T14:46:03.663Z,6.58
2018-12-18T14:48:38.358Z,4.75
2018-12-18T14:51:17.302Z,4.85
2018-12-18T14:53:53.749Z,6.45
2018-12-18T14:56:29.357Z,4.45
2018-12-18T14:59:11.265Z,7.58
2018-12-18T15:01:48.403Z,4.92
2018-12-18T15:04:30.048Z,6.50
2018-12-18T15:07:12.784Z,5.10
2018-12-18T15:09:55.830Z,6.08
2018-12-18T15:29:56.607Z,5.22
2018-12-18T15:32:32.614Z,5.78
2018-12-18T15:35:10.342Z,7.95
2018-12-18T15:37:46.237Z,7.67
2018-12-18T15:46:01.138Z,4.92
2018-12-18T15:48:43.342Z,7.50
2018-12-18T15:51:21.265Z,7.75
2018-12-18T15:54:04.043Z,12.78
2018-12-18T15:56:37.014Z,5.10
2018-12-18T16:02:07.537Z,4.70
2018-12-18T16:04:43.170Z,10.60
2018-12-18T16:07:18.255Z,9.05
2018-12-18T16:10:00.932Z,8.25
2018-12-18T16:12:36.731Z,9.95
2018-12-18T16:15:13.481Z,6.28
2018-12-18T16:17:48.988Z,6.40
2018-12-18T16:20:28.204Z,7.15
2018-12-18T16:23:08.164Z,8.88
2018-12-18T16:25:44.375Z,5.45
2018-12-18T16:28:24.324Z,8.63
2018-12-18T16:31:03.849Z,6.33
2018-12-18T16:33:41.881Z,6.33
2018-12-18T16:36:18.161Z,6.08
2018-12-18T16:39:00.274Z,8.85
2018-12-18T16:41:42.873Z,7.20
2018-12-18T16:50:27.895Z,11.18
2018-12-18T17:04:23.344Z,5.53
2018-12-18T17:58:34.961Z,10.10
2018-12-18T18:30:35.539Z,11.70
2018-12-18T18:33:22.282Z,10.18
2018-12-18T18:35:59.507Z,12.43
2018-12-18T18:38:33.810Z,18.52
2018-12-18T18:41:15.536Z,22.30
2018-12-18T18:43:53.234Z,27.75
2018-12-18T18:46:30.136Z,32.90
2018-12-18T18:49:12.424Z,37.13
2018-12-18T18:52:05.195Z,29.50
2018-12-18T18:55:01.872Z,30.05
2018-12-18T18:57:46.352Z,23.12
2018-12-18T19:00:22.688Z,24.12
2018-12-18T19:02:58.961Z,13.88
2018-12-18T19:08:25.629Z,8.10
2018-12-18T19:10:59.991Z,7.03
2018-12-18T19:13:34.685Z,12.03
2018-12-18T19:16:10.273Z,6.45
2018-12-18T19:18:52.853Z,8.80
2018-12-18T19:21:25.329Z,6.20
2018-12-18T19:23:59.244Z,20.37
2018-12-18T19:26:33.758Z,14.47
2018-12-18T19:29:10.521Z,13.03
2018-12-18T19:31:44.548Z,19.87
2018-12-18T19:34:17.631Z,16.95
2018-12-18T19:36:52.565Z,17.90
2018-12-18T19:39:27.643Z,16.25
2018-12-18T19:42:01.157Z,15.50
2018-12-18T19:44:36.535Z,12.65
2018-12-18T19:47:15.142Z,11.93
2018-12-18T19:49:54.524Z,16.52
2018-12-18T19:52:32.976Z,19.52
2018-12-18T19:55:07.921Z,22.35
2018-12-18T19:57:42.849Z,28.57
2018-12-18T20:00:27.760Z,27.00
2018-12-18T20:03:11.436Z,20.65
2018-12-18T20:05:46.468Z,20.50
2018-12-18T20:08:28.115Z,25.12
2018-12-18T20:11:03.658Z,26.25
2018-12-18T20:13:45.275Z,25.97
2018-12-18T20:16:22.708Z,18.48
2018-12-18T20:18:59.509Z,24.18
2018-12-18T20:21:38.766Z,13.07
2018-12-18T20:24:22.761Z,17.15
2018-12-18T20:26:58.716Z,38.33
2018-12-18T20:29:36.055Z,42.85
2018-12-18T20:32:10.384Z,37.78
2018-12-18T20:34:52.643Z,25.00
2018-12-18T20:37:30.831Z,23.85
2018-12-18T20:40:11.375Z,16.40
2018-12-18T20:42:48.517Z,15.55
2018-12-18T20:45:23.557Z,14.65
2018-12-18T20:48:03.422Z,11.22
2018-12-18T20:50:38.943Z,11.43
2018-12-18T20:53:15.449Z,12.37
2018-12-18T20:55:48.697Z,18.75
2018-12-18T20:58:24.565Z,24.45
2018-12-18T21:01:09.003Z,24.65
2018-12-18T21:03:45.122Z,14.25
2018-12-18T21:06:21.462Z,12.63
2018-12-18T21:08:57.425Z,10.75
2018-12-18T21:11:32.617Z,11.40
2018-12-18T21:14:11.480Z,10.93
2018-12-18T21:16:48.193Z,13.50
2018-12-18T21:19:27.677Z,10.88
2018-12-18T21:22:01.666Z,11.05
2018-12-18T21:24:36.232Z,12.63
2018-12-18T21:27:15.787Z,11.25
2018-12-18T21:32:57.873Z,12.78
2018-12-18T21:35:36.042Z,13.75
2018-12-18T21:38:13.705Z,19.35
2018-12-18T21:40:52.990Z,12.40
2018-12-18T21:43:33.421Z,11.85
2018-12-18T21:46:18.467Z,7.50
2018-12-18T21:48:56.460Z,12.58
2018-12-18T21:54:24.447Z,18.70
2018-12-18T21:56:59.563Z,21.95
2018-12-18T21:59:32.685Z,21.80
2018-12-18T22:02:07.815Z,19.35
2018-12-18T22:04:44.197Z,15.98
2018-12-18T22:07:20.721Z,15.08
2018-12-18T22:09:58.265Z,14.28
2018-12-18T22:12:38.237Z,16.02
2018-12-18T22:15:13.364Z,15.58
2018-12-18T22:17:47.996Z,11.63
2018-12-18T22:20:22.948Z,9.90
2018-12-18T22:23:06.113Z,11.43
2018-12-18T22:25:43.065Z,16.23
2018-12-18T22:28:19.964Z,19.48
2018-12-18T22:30:58.210Z,14.58
2018-12-18T22:33:35.097Z,12.58
2018-12-18T22:36:14.565Z,15.18
2018-12-18T22:38:50.846Z,9.68
2018-12-18T22:41:28.097Z,10.30
2018-12-18T22:44:02.827Z,11.40
2018-12-18T22:46:37.616Z,13.90
2018-12-18T22:49:11.964Z,10.08
2018-12-18T22:51:54.158Z,13.15
2018-12-18T22:54:30.258Z,14.68
2018-12-18T22:57:13.832Z,14.75
2018-12-18T22:59:51.100Z,10.82
2018-12-18T23:02:25.541Z,13.78
2018-12-18T23:07:49.525Z,8.80
2018-12-18T23:10:23.333Z,11.18
2018-12-18T23:13:04.238Z,8.73
2018-12-18T23:15:44.568Z,8.85
2018-12-18T23:18:23.600Z,12.55
2018-12-18T23:20:57.933Z,13.93
2018-12-18T23:23:32.130Z,16.42
2018-12-18T23:26:11.463Z,14.87
2018-12-18T23:28:48.432Z,14.20
2018-12-18T23:31:25.089Z,13.15
2018-12-18T23:33:59.540Z,15.08
2018-12-18T23:44:56.715Z,16.73
2018-12-18T23:47:38.649Z,15.88
2018-12-18T23:50:20.664Z,15.15
2018-12-18T23:53:01.829Z,15.00
2018-12-18T23:55:38.640Z,14.78
2018-12-18T23:58:24.850Z,15.28
